Coatbridge, United Kingdom
Current Conditions -  °F | °C
As of 8:20 PM on Monday 24 Nov 2014 (Local Time) from EGPF Reporting Station
Overcast Overcast  
Wind Chill:   Ceiling: 1800
Heat Index:   Visibility: 6mi
Dew Point:   Wind: 7mph
Humidity: 87%   Direction: 180°S
Pressure: 30.24"   Gusts: NA
Location:  55.86°N, 4.03°W
Report Text: EGPF 242020Z AUTO 18006KT 9999 OVC018 08/06 Q1024
Loading
Personal Weather Stations






























Interactive Weather Map New forecast layout! Learn more

10-Day Weather Forecast

Advertisements
Track Severe Weather on mobile